Time;durP1;ratioP1;P1;durP2;ratioP2;P2;SDS_P1;SDS_P2;PMS_P1;PMS_P2;Temp;Humidity;BMP_temperature;BMP_pressure;BME280_temperature;BME280_humidity;BME280_pressure;Samples;Min_cycle;Max_cycle;Signal;HPM_P1;HPM_P2
2023/04/04 00:00:09;;;;;;;5.78;3.28;;;3.80;99.90;;;;;;6335105;22;20455;-81
2023/04/04 00:02:34;;;;;;;4.28;3.70;;;3.70;99.90;;;;;;6334669;22;20108;-80
2023/04/04 00:05:00;;;;;;;5.05;3.30;;;3.70;99.90;;;;;;6336568;22;20022;-81
2023/04/04 01:14:39;;;;;;;8.55;3.78;;;3.10;99.90;;;;;;6285952;22;20066;-80
2023/04/04 01:17:05;;;;;;;7.47;3.08;;;3.00;99.90;;;;;;6305429;22;20025;-80
2023/04/04 01:19:42;;;;;;;11.60;3.85;;;3.10;99.90;;;;;;6333743;22;20721;-81
2023/04/04 01:22:10;;;;;;;10.48;3.85;;;3.10;99.90;;;;;;6331998;22;20099;-80
2023/04/04 01:24:41;;;;;;;6.22;3.10;;;3.00;99.90;;;;;;6306516;22;20084;-80
2023/04/04 01:27:06;;;;;;;6.00;3.35;;;3.00;99.90;;;;;;6305729;22;20033;-81
2023/04/04 01:29:32;;;;;;;4.93;3.58;;;3.00;99.90;;;;;;6333645;22;20042;-81
2023/04/04 01:32:10;;;;;;;6.00;3.30;;;3.00;99.90;;;;;;6332871;22;20019;-80
2023/04/04 01:34:38;;;;;;;6.50;3.50;;;3.00;99.90;;;;;;6333302;22;20090;-81
2023/04/04 01:37:16;;;;;;;5.63;3.83;;;3.10;99.90;;;;;;6333200;22;20026;-81
2023/04/04 01:39:50;;;;;;;6.18;3.70;;;3.10;99.90;;;;;;6280027;22;20029;-81
2023/04/04 01:42:18;;;;;;;6.45;3.70;;;3.00;99.90;;;;;;6305444;22;20588;-80
2023/04/04 01:44:44;;;;;;;5.90;3.70;;;3.10;99.90;;;;;;6333176;22;20019;-81
2023/04/04 01:47:12;;;;;;;6.65;3.92;;;3.00;99.90;;;;;;6279709;22;20053;-81
2023/04/04 01:49:37;;;;;;;7.97;3.67;;;2.90;99.90;;;;;;6305274;22;20084;-81
2023/04/04 01:52:05;;;;;;;5.95;3.60;;;3.00;99.90;;;;;;6305251;22;20023;-81
2023/04/04 01:54:32;;;;;;;8.73;3.58;;;3.00;99.90;;;;;;6305257;22;20038;-81
2023/04/04 01:56:58;;;;;;;5.75;3.75;;;3.00;99.90;;;;;;6304727;22;20386;-79
2023/04/04 01:59:24;;;;;;;7.43;3.58;;;3.00;99.90;;;;;;6305391;22;20045;-81
2023/04/04 02:01:50;;;;;;;4.32;3.03;;;3.00;99.90;;;;;;6305125;22;20029;-79
2023/04/04 02:04:15;;;;;;;4.05;3.38;;;3.00;99.90;;;;;;6305590;22;20022;-80
2023/04/04 02:06:41;;;;;;;10.10;3.95;;;2.90;99.90;;;;;;6333481;22;20019;-80
2023/04/04 02:09:07;;;;;;;7.35;3.88;;;2.80;99.90;;;;;;6305540;22;20026;-80
2023/04/04 02:11:33;;;;;;;9.00;3.83;;;2.80;99.90;;;;;;6279187;22;20023;-80
2023/04/04 02:13:59;;;;;;;7.18;3.47;;;2.90;99.90;;;;;;6332786;22;20036;-81
2023/04/04 02:16:25;;;;;;;6.15;3.38;;;2.80;99.90;;;;;;6296560;22;20410;-81
2023/04/04 02:18:51;;;;;;;7.28;3.38;;;2.90;99.90;;;;;;6305125;22;20502;-80
2023/04/04 02:21:17;;;;;;;5.80;3.50;;;2.80;99.90;;;;;;6332803;22;20026;-80
2023/04/04 02:23:43;;;;;;;6.50;3.20;;;2.80;99.90;;;;;;6332820;22;20037;-80
2023/04/04 02:26:08;;;;;;;6.20;3.53;;;2.70;99.90;;;;;;6332504;22;20235;-80
2023/04/04 02:28:34;;;;;;;8.52;3.67;;;2.80;99.90;;;;;;6331164;22;20357;-80
2023/04/04 02:31:04;;;;;;;4.82;3.25;;;2.80;99.90;;;;;;6333067;22;20014;-81
2023/04/04 02:33:30;;;;;;;3.85;2.97;;;2.90;99.90;;;;;;6332785;22;20456;-81
2023/04/04 02:35:59;;;;;;;3.75;2.92;;;2.80;99.90;;;;;;6331219;22;20018;-81
2023/04/04 02:38:25;;;;;;;6.50;3.10;;;2.90;99.90;;;;;;6333614;22;20337;-81
2023/04/04 02:40:51;;;;;;;6.18;2.90;;;2.80;99.90;;;;;;6332813;22;20023;-80
2023/04/04 02:43:17;;;;;;;6.63;3.50;;;2.80;99.90;;;;;;6330699;22;20066;-81
2023/04/04 02:45:42;;;;;;;9.82;4.05;;;2.80;99.90;;;;;;6330118;22;20069;-80
2023/04/04 02:48:09;;;;;;;5.55;3.25;;;2.80;99.90;;;;;;6330426;22;20126;-81
2023/04/04 02:50:35;;;;;;;7.72;3.67;;;2.80;99.90;;;;;;6304909;22;20039;-80
2023/04/04 02:53:02;;;;;;;5.15;3.33;;;2.90;99.90;;;;;;6330394;22;20022;-80
2023/04/04 02:55:28;;;;;;;5.90;3.20;;;2.80;99.90;;;;;;6304221;22;20107;-80
2023/04/04 02:57:53;;;;;;;6.18;3.20;;;2.80;99.90;;;;;;6330560;22;20056;-81
2023/04/04 03:00:19;;;;;;;6.85;3.33;;;2.80;99.90;;;;;;6330756;22;20353;-81
2023/04/04 03:02:51;;;;;;;5.68;3.10;;;2.70;99.90;;;;;;6330780;22;20061;-81
2023/04/04 03:05:17;;;;;;;8.77;3.35;;;2.70;99.90;;;;;;6330606;22;20362;-81
2023/04/04 03:07:43;;;;;;;10.95;3.63;;;2.70;99.90;;;;;;6329875;22;20019;-80
2023/04/04 03:10:08;;;;;;;5.57;3.42;;;2.70;99.90;;;;;;6329164;22;20089;-81
2023/04/04 03:12:34;;;;;;;6.30;3.35;;;2.70;99.90;;;;;;6330590;22;20071;-81
2023/04/04 03:15:00;;;;;;;3.45;2.72;;;2.70;99.90;;;;;;6334804;22;20036;-79
2023/04/04 03:17:26;;;;;;;6.55;3.25;;;2.70;99.90;;;;;;6335850;22;20465;-80
2023/04/04 03:19:52;;;;;;;8.98;3.13;;;2.70;99.90;;;;;;6335947;22;20083;-80
2023/04/04 03:22:17;;;;;;;5.97;3.13;;;2.70;99.90;;;;;;6363863;22;20046;-80
2023/04/04 03:24:45;;;;;;;5.05;3.33;;;2.70;99.90;;;;;;6335050;22;20128;-80
2023/04/04 03:27:11;;;;;;;4.32;3.40;;;2.70;99.90;;;;;;6335394;22;20029;-80
2023/04/04 03:29:37;;;;;;;4.10;3.10;;;2.70;99.90;;;;;;6363509;22;20461;-80
2023/04/04 03:32:03;;;;;;;9.20;3.10;;;2.60;99.90;;;;;;6335865;22;20047;-79
2023/04/04 03:34:29;;;;;;;4.45;3.20;;;2.60;99.90;;;;;;6335435;22;20015;-80
2023/04/04 03:36:56;;;;;;;5.55;2.92;;;2.60;99.90;;;;;;6335028;22;20085;-79
2023/04/04 03:39:27;;;;;;;4.60;3.08;;;2.70;99.90;;;;;;6335160;22;20033;-79
2023/04/04 03:41:54;;;;;;;4.43;3.40;;;2.60;99.90;;;;;;6335233;22;20022;-80
2023/04/04 03:44:20;;;;;;;6.03;3.20;;;2.50;99.90;;;;;;6335115;22;20738;-80
2023/04/04 03:46:46;;;;;;;5.05;2.92;;;2.50;99.90;;;;;;6335847;22;20021;-80
2023/04/04 03:49:11;;;;;;;3.65;2.72;;;2.50;99.90;;;;;;6335442;22;20204;-80
2023/04/04 03:51:37;;;;;;;6.43;3.00;;;2.40;99.90;;;;;;6335091;22;20030;-80
2023/04/04 03:54:03;;;;;;;5.60;3.25;;;2.30;99.90;;;;;;6363687;22;20337;-80
2023/04/04 03:56:30;;;;;;;8.10;3.20;;;2.30;99.90;;;;;;6335181;22;20452;-80
2023/04/04 03:58:56;;;;;;;6.78;2.78;;;2.30;99.90;;;;;;6363594;22;20018;-80
2023/04/04 04:01:22;;;;;;;5.50;3.45;;;2.30;99.90;;;;;;6334190;22;20022;-79
2023/04/04 04:03:48;;;;;;;6.00;3.03;;;2.20;99.90;;;;;;6335673;22;20459;-79
2023/04/04 04:06:13;;;;;;;3.30;2.63;;;2.20;99.90;;;;;;6308824;22;20170;-79
2023/04/04 04:08:39;;;;;;;9.20;2.92;;;2.10;99.90;;;;;;6363260;22;20076;-80
2023/04/04 04:11:06;;;;;;;3.83;2.97;;;2.10;99.90;;;;;;6335483;22;20022;-81
2023/04/04 04:13:34;;;;;;;5.80;2.92;;;2.20;99.90;;;;;;6335397;22;20022;-81
2023/04/04 04:16:00;;;;;;;6.22;2.70;;;2.20;99.90;;;;;;6309178;22;20062;-79
2023/04/04 04:18:26;;;;;;;4.22;3.03;;;2.00;99.90;;;;;;6335535;22;20326;-80
2023/04/04 04:21:00;;;;;;;9.70;3.35;;;2.10;99.90;;;;;;6335138;22;20060;-81
2023/04/04 04:23:26;;;;;;;6.43;3.47;;;2.00;99.90;;;;;;6363878;22;20014;-80
2023/04/04 04:25:52;;;;;;;7.13;3.35;;;2.00;99.90;;;;;;6364205;22;20014;-80
2023/04/04 04:28:20;;;;;;;3.40;2.45;;;1.80;99.90;;;;;;6335543;22;20090;-81
2023/04/04 04:30:46;;;;;;;8.25;3.20;;;1.90;99.90;;;;;;6335163;22;20050;-81
2023/04/04 04:33:12;;;;;;;4.97;3.10;;;2.00;99.90;;;;;;6363149;22;20463;-80
2023/04/04 04:35:38;;;;;;;5.78;3.30;;;2.10;99.90;;;;;;6334959;22;20033;-81
2023/04/04 04:38:05;;;;;;;8.98;3.53;;;2.10;99.90;;;;;;6335330;22;20351;-81
2023/04/04 04:40:35;;;;;;;8.63;3.65;;;1.90;99.90;;;;;;6335307;22;20060;-80
2023/04/04 04:43:03;;;;;;;4.28;3.45;;;1.80;99.90;;;;;;6363291;22;20018;-80
2023/04/04 04:45:29;;;;;;;6.30;3.10;;;1.90;99.90;;;;;;6335363;22;20107;-79
2023/04/04 04:47:55;;;;;;;5.45;2.92;;;2.00;99.90;;;;;;6363920;22;20297;-80
2023/04/04 04:50:21;;;;;;;8.27;3.50;;;2.00;99.90;;;;;;6335149;22;20032;-79
2023/04/04 04:52:50;;;;;;;7.05;3.20;;;1.90;99.90;;;;;;6337048;22;20062;-79
2023/04/04 04:55:17;;;;;;;5.47;3.53;;;1.90;99.90;;;;;;6310577;22;20475;-80
2023/04/04 04:57:42;;;;;;;4.03;3.40;;;1.80;99.90;;;;;;6365576;22;20015;-79
2023/04/04 05:00:09;;;;;;;6.28;3.50;;;1.60;99.90;;;;;;6364868;22;20093;-79
2023/04/04 05:02:35;;;;;;;8.65;4.03;;;1.50;99.90;;;;;;6365504;22;20332;-79
2023/04/04 05:05:00;;;;;;;7.55;3.58;;;1.50;99.90;;;;;;6365130;22;20018;-79
2023/04/04 05:07:26;;;;;;;5.72;3.67;;;1.50;99.90;;;;;;6365094;22;20026;-78
2023/04/04 05:09:52;;;;;;;6.22;3.92;;;1.40;99.90;;;;;;6364984;22;20014;-79
2023/04/04 05:12:18;;;;;;;6.95;3.90;;;1.50;99.90;;;;;;6336625;22;20090;-79
2023/04/04 05:14:44;;;;;;;6.68;3.45;;;1.60;99.90;;;;;;6336054;22;20014;-78
2023/04/04 05:17:10;;;;;;;6.20;3.50;;;1.60;99.90;;;;;;6364317;22;20310;-79
2023/04/04 05:19:36;;;;;;;6.03;3.50;;;1.70;99.90;;;;;;6336107;22;20029;-79
2023/04/04 05:22:02;;;;;;;5.72;3.53;;;1.80;99.90;;;;;;6365005;22;20089;-79
2023/04/04 05:24:27;;;;;;;5.95;4.55;;;1.80;99.90;;;;;;6364457;22;20049;-79
2023/04/04 05:26:53;;;;;;;7.55;3.28;;;1.80;99.90;;;;;;6336447;22;20054;-79
2023/04/04 05:29:19;;;;;;;7.97;4.03;;;1.70;99.90;;;;;;6336845;22;20412;-79
2023/04/04 05:31:45;;;;;;;7.28;3.88;;;1.80;99.90;;;;;;6336700;22;20014;-81
2023/04/04 05:34:10;;;;;;;7.38;3.85;;;1.80;99.90;;;;;;6310713;22;20064;-80
2023/04/04 05:36:36;;;;;;;3.80;3.20;;;1.90;99.90;;;;;;6336744;22;20018;-81
2023/04/04 05:39:05;;;;;;;3.78;3.38;;;1.80;99.90;;;;;;6365063;22;20322;-81
2023/04/04 05:41:32;;;;;;;4.70;3.20;;;1.80;99.90;;;;;;6336570;22;20391;-81
2023/04/04 05:43:58;;;;;;;8.80;3.90;;;1.80;99.90;;;;;;6336120;22;20022;-79
2023/04/04 05:46:24;;;;;;;6.38;3.60;;;1.80;99.90;;;;;;6337004;22;20022;-80
2023/04/04 05:48:50;;;;;;;16.80;12.57;;;1.90;99.90;;;;;;6337016;22;20473;-80
2023/04/04 05:51:17;;;;;;;9.27;7.10;;;2.00;99.90;;;;;;6365510;22;20022;-83
2023/04/04 05:53:44;;;;;;;9.68;4.75;;;1.90;99.90;;;;;;6338234;22;20022;-82
2023/04/04 05:56:10;;;;;;;5.50;4.25;;;1.90;99.90;;;;;;6337957;22;20068;-82
2023/04/04 05:58:36;;;;;;;7.47;3.97;;;2.00;99.90;;;;;;6366416;22;20098;-81
2023/04/04 06:01:09;;;;;;;5.07;3.45;;;2.00;99.90;;;;;;6337148;22;20762;-83
2023/04/04 06:03:35;;;;;;;6.43;3.70;;;2.10;99.90;;;;;;6364537;22;20038;-83
2023/04/04 06:06:04;;;;;;;4.90;3.13;;;2.10;99.90;;;;;;6365634;22;20057;-83
2023/04/04 06:08:33;;;;;;;4.63;3.33;;;2.20;99.90;;;;;;6336972;22;20042;-80
2023/04/04 06:10:58;;;;;;;7.57;3.38;;;2.20;99.90;;;;;;6336224;22;20022;-79
2023/04/04 06:13:24;;;;;;;8.43;3.60;;;2.20;99.90;;;;;;6336455;22;20505;-81
2023/04/04 06:15:50;;;;;;;6.40;3.35;;;2.30;99.90;;;;;;6336432;22;20028;-80
2023/04/04 06:18:16;;;;;;;3.70;2.97;;;2.30;99.90;;;;;;6335676;22;20628;-80
2023/04/04 06:20:42;;;;;;;5.57;3.20;;;2.30;99.90;;;;;;6364071;22;20006;-80
2023/04/04 06:23:08;;;;;;;10.23;3.08;;;2.30;99.90;;;;;;6365422;22;20087;-80
2023/04/04 06:25:35;;;;;;;5.57;2.95;;;2.50;99.90;;;;;;6336828;22;20075;-80
2023/04/04 06:28:02;;;;;;;9.68;3.08;;;2.50;99.90;;;;;;6336941;22;20053;-80
2023/04/04 06:30:28;;;;;;;6.53;3.92;;;2.50;99.90;;;;;;6337409;22;20022;-81
2023/04/04 06:32:54;;;;;;;4.80;2.65;;;2.60;99.90;;;;;;6364788;22;20014;-81
2023/04/04 06:35:20;;;;;;;6.85;3.92;;;2.60;99.90;;;;;;6337162;22;20022;-81
2023/04/04 06:37:47;;;;;;;8.02;3.75;;;2.70;99.90;;;;;;6337405;22;20032;-81
2023/04/04 06:40:13;;;;;;;3.22;2.50;;;2.70;99.90;;;;;;6337192;22;20018;-81
2023/04/04 06:42:46;;;;;;;5.28;2.95;;;2.80;99.90;;;;;;6310662;22;20033;-81
2023/04/04 06:45:12;;;;;;;5.38;2.35;;;2.90;99.90;;;;;;6337063;22;20028;-82
2023/04/04 06:47:37;;;;;;;4.78;3.15;;;2.90;99.90;;;;;;6364912;22;20101;-76
2023/04/04 06:50:04;;;;;;;5.95;2.83;;;3.00;99.90;;;;;;6365314;22;20042;-76
2023/04/04 06:52:30;;;;;;;5.82;3.10;;;3.00;99.90;;;;;;6365191;22;20213;-75
2023/04/04 06:54:55;;;;;;;3.95;2.58;;;3.10;99.90;;;;;;6336528;22;20396;-77
2023/04/04 06:57:21;;;;;;;7.38;2.95;;;3.10;99.90;;;;;;6364785;22;20022;-78
2023/04/04 06:59:47;;;;;;;8.63;2.80;;;3.30;99.90;;;;;;6310688;22;20023;-77
2023/04/04 07:02:13;;;;;;;4.10;2.67;;;3.30;99.90;;;;;;6336852;22;20075;-87
2023/04/04 07:04:39;;;;;;;6.03;2.67;;;3.30;99.90;;;;;;6338211;22;20022;-87
2023/04/04 07:07:05;;;;;;;2.85;2.35;;;3.40;99.90;;;;;;6338798;22;20596;-86
2023/04/04 07:09:31;;;;;;;5.90;2.67;;;3.40;99.90;;;;;;6337538;22;20022;-85
2023/04/04 07:11:56;;;;;;;2.85;2.42;;;3.30;99.90;;;;;;6366208;22;20100;-85
2023/04/04 07:14:24;;;;;;;6.65;2.70;;;3.40;99.90;;;;;;6337122;22;20019;-86
2023/04/04 07:16:50;;;;;;;4.07;2.20;;;3.50;99.90;;;;;;6336705;22;20109;-84
2023/04/04 07:19:16;;;;;;;4.38;2.40;;;3.60;99.90;;;;;;6311439;22;20446;-85
2023/04/04 07:21:42;;;;;;;5.97;2.95;;;3.60;99.90;;;;;;6337462;22;20049;-86
2023/04/04 07:24:08;;;;;;;5.60;3.00;;;3.60;99.90;;;;;;6338224;22;20455;-87
2023/04/04 07:26:34;;;;;;;7.18;2.70;;;3.60;99.90;;;;;;6336788;22;20022;-86
2023/04/04 07:29:00;;;;;;;5.68;2.95;;;3.80;99.90;;;;;;6336712;22;20014;-86
2023/04/04 07:31:26;;;;;;;3.47;2.42;;;3.90;99.90;;;;;;6341558;22;20019;-84
2023/04/04 07:33:55;;;;;;;7.28;2.67;;;3.90;99.90;;;;;;6344487;22;20021;-85
2023/04/04 07:36:21;;;;;;;7.57;2.63;;;4.00;99.90;;;;;;6344499;22;20045;-86
2023/04/04 07:38:46;;;;;;;5.63;2.65;;;4.10;99.90;;;;;;6341655;22;20037;-85
2023/04/04 07:41:12;;;;;;;6.95;3.38;;;4.10;99.90;;;;;;6337012;22;20022;-85
2023/04/04 07:43:38;;;;;;;3.97;2.50;;;4.20;99.90;;;;;;6337764;22;20022;-85
2023/04/04 07:46:03;;;;;;;4.65;2.50;;;4.30;99.90;;;;;;6336989;22;20091;-85
2023/04/04 07:48:29;;;;;;;8.45;2.45;;;4.20;99.90;;;;;;6337613;22;20014;-85
2023/04/04 07:50:55;;;;;;;5.50;2.22;;;4.30;99.90;;;;;;6337079;22;20018;-85
2023/04/04 07:53:21;;;;;;;8.55;2.75;;;4.30;99.90;;;;;;6364914;22;20022;-86
2023/04/04 07:55:47;;;;;;;5.07;1.90;;;4.40;99.90;;;;;;6364701;22;20026;-84
2023/04/04 07:58:13;;;;;;;2.33;2.08;;;4.40;99.90;;;;;;6364383;22;20413;-84
2023/04/04 08:00:38;;;;;;;3.35;2.25;;;4.50;99.90;;;;;;6365174;22;20071;-85
2023/04/04 08:03:04;;;;;;;4.07;2.30;;;4.60;99.90;;;;;;6336390;22;20025;-85
2023/04/04 08:05:30;;;;;;;3.22;2.08;;;4.60;99.90;;;;;;6336393;22;20022;-86
2023/04/04 08:07:56;;;;;;;5.35;2.15;;;4.60;99.90;;;;;;6336415;22;20325;-86
2023/04/04 08:10:22;;;;;;;5.20;2.20;;;4.70;99.90;;;;;;6365064;22;20345;-85
2023/04/04 08:12:48;;;;;;;8.35;3.15;;;4.70;99.90;;;;;;6336268;22;20018;-84
2023/04/04 08:15:14;;;;;;;4.13;2.03;;;4.70;99.90;;;;;;6336551;22;20449;-83
2023/04/04 08:17:41;;;;;;;4.60;2.05;;;4.80;99.90;;;;;;6337969;22;20050;-84
2023/04/04 08:20:08;;;;;;;3.97;1.80;;;4.80;99.90;;;;;;6336663;22;20093;-84
2023/04/04 08:22:34;;;;;;;5.90;1.90;;;4.90;99.90;;;;;;6336793;22;20085;-85
2023/04/04 08:24:59;;;;;;;7.38;2.50;;;5.00;99.90;;;;;;6365228;22;20437;-86
2023/04/04 08:27:26;;;;;;;7.13;2.40;;;5.00;99.90;;;;;;6312435;22;20050;-85
2023/04/04 08:29:52;;;;;;;9.27;2.22;;;5.10;99.90;;;;;;6338742;22;20033;-75
2023/04/04 08:32:17;;;;;;;3.78;2.10;;;5.10;99.90;;;;;;6336559;22;20026;-73
2023/04/04 08:34:43;;;;;;;3.90;2.42;;;5.20;99.90;;;;;;6332760;22;20018;-75
2023/04/04 08:37:09;;;;;;;4.88;2.15;;;5.30;99.90;;;;;;6333977;22;20021;-77
2023/04/04 08:39:35;;;;;;;7.82;2.05;;;5.30;99.90;;;;;;6335055;22;20024;-75
2023/04/04 08:42:06;;;;;;;4.32;2.03;;;5.20;99.90;;;;;;6336744;22;20023;-77
2023/04/04 08:44:33;;;;;;;4.22;2.00;;;5.40;99.90;;;;;;6337457;22;20474;-76
2023/04/04 08:47:01;;;;;;;6.43;2.40;;;5.30;99.90;;;;;;6337254;22;20049;-75
2023/04/04 08:49:28;;;;;;;3.13;2.22;;;5.40;99.90;;;;;;6335702;22;20056;-73
2023/04/04 08:51:56;;;;;;;3.75;2.03;;;5.50;99.90;;;;;;6336341;22;20410;-75
2023/04/04 08:54:24;;;;;;;3.70;2.53;;;5.60;99.90;;;;;;6311167;22;20018;-78
2023/04/04 08:56:51;;;;;;;4.68;2.28;;;5.60;99.90;;;;;;6337206;22;20048;-78
2023/04/04 08:59:17;;;;;;;4.55;2.17;;;5.60;99.90;;;;;;6337564;22;20022;-83
2023/04/04 09:01:43;;;;;;;3.78;2.08;;;5.80;99.90;;;;;;6311180;22;20078;-80
2023/04/04 09:04:10;;;;;;;5.45;2.60;;;5.80;99.90;;;;;;6310236;22;20317;-80
2023/04/04 09:06:36;;;;;;;6.20;2.40;;;5.80;99.90;;;;;;6336909;22;20030;-80
2023/04/04 09:09:02;;;;;;;3.15;2.35;;;5.90;99.90;;;;;;6365466;22;20014;-84
2023/04/04 09:11:30;;;;;;;2.50;2.25;;;6.00;99.90;;;;;;6337593;22;20022;-83
2023/04/04 09:13:57;;;;;;;4.53;2.65;;;6.00;99.90;;;;;;6311681;22;20022;-83
2023/04/04 09:16:23;;;;;;;7.20;2.13;;;6.00;99.90;;;;;;6337833;22;20097;-83
2023/04/04 09:18:51;;;;;;;4.05;2.40;;;6.00;99.90;;;;;;6312088;22;20402;-83
2023/04/04 09:21:18;;;;;;;5.40;2.42;;;6.00;99.90;;;;;;6312393;22;20059;-83
2023/04/04 09:23:44;;;;;;;4.18;3.00;;;6.00;99.90;;;;;;6336775;22;20075;-83
2023/04/04 09:26:12;;;;;;;5.65;2.17;;;6.20;99.90;;;;;;6367664;22;20026;-83
2023/04/04 09:28:38;;;;;;;5.22;2.20;;;6.20;99.90;;;;;;6339694;22;20435;-83
2023/04/04 09:31:07;;;;;;;4.03;2.38;;;6.20;99.90;;;;;;6339058;22;20072;-79
2023/04/04 09:33:33;;;;;;;5.00;1.67;;;6.30;99.90;;;;;;6339021;22;20026;-82
2023/04/04 09:36:05;;;;;;;2.03;1.83;;;6.30;99.90;;;;;;6337395;22;20528;-83
2023/04/04 09:38:31;;;;;;;6.95;2.40;;;6.50;99.90;;;;;;6336137;22;20022;-83
2023/04/04 09:40:57;;;;;;;6.00;2.05;;;6.30;99.90;;;;;;6336632;22;20026;-83
2023/04/04 09:43:23;;;;;;;5.15;2.95;;;6.50;99.90;;;;;;6334910;22;20415;-81
2023/04/04 09:45:50;;;;;;;3.15;1.80;;;6.40;99.90;;;;;;6335606;22;20389;-78
2023/04/04 09:48:34;;;;;;;6.43;2.10;;;6.50;99.90;;;;;;6335002;22;20014;-78
2023/04/04 09:51:03;;;;;;;4.57;1.80;;;6.60;99.90;;;;;;6368114;22;20051;-79
2023/04/04 09:53:28;;;;;;;5.35;2.40;;;6.50;99.90;;;;;;6367515;22;20087;-77
2023/04/04 09:55:56;;;;;;;2.35;1.83;;;6.60;99.90;;;;;;6335621;22;20465;-79
2023/04/04 09:58:27;;;;;;;4.25;2.00;;;6.50;99.90;;;;;;6310596;22;20018;-80
2023/04/04 10:00:56;;;;;;;3.67;2.53;;;6.50;99.90;;;;;;6365153;22;20081;-81
2023/04/04 10:03:23;;;;;;;6.50;2.00;;;6.70;99.90;;;;;;6364615;22;20064;-81
2023/04/04 10:06:09;;;;;;;3.85;1.70;;;6.70;99.90;;;;;;6337006;22;20022;-81
2023/04/04 10:08:39;;;;;;;1.70;1.60;;;6.70;99.90;;;;;;6329181;22;20029;-80
2023/04/04 10:11:06;;;;;;;3.30;2.30;;;6.80;99.90;;;;;;6336520;22;20018;-81
2023/04/04 10:13:35;;;;;;;4.10;2.65;;;6.80;99.90;;;;;;6365086;22;20014;-82
2023/04/04 10:16:03;;;;;;;3.60;2.05;;;6.80;99.90;;;;;;6336409;22;20029;-81
2023/04/04 10:18:31;;;;;;;4.78;2.03;;;6.80;99.90;;;;;;6364908;22;20018;-80
2023/04/04 10:21:01;;;;;;;3.10;2.15;;;6.80;99.90;;;;;;6365498;22;20030;-80
2023/04/04 10:23:27;;;;;;;4.03;2.38;;;6.90;99.90;;;;;;6336138;22;20056;-80
2023/04/04 10:25:54;;;;;;;7.25;2.35;;;6.70;99.90;;;;;;6336901;22;20298;-80
2023/04/04 10:28:21;;;;;;;3.97;2.38;;;6.90;99.90;;;;;;6336539;22;20130;-78
2023/04/04 10:31:13;;;;;;;5.43;3.05;;;6.90;99.90;;;;;;6364517;22;20033;-78
2023/04/04 10:33:53;;;;;;;3.33;2.38;;;6.90;99.90;;;;;;6364594;22;20025;-79
2023/04/04 10:36:26;;;;;;;4.57;1.83;;;6.90;99.90;;;;;;6336475;22;20018;-79
2023/04/04 10:39:17;;;;;;;5.60;2.45;;;6.90;99.90;;;;;;6335984;22;20022;-78
2023/04/04 10:41:45;;;;;;;2.90;2.13;;;6.90;99.90;;;;;;6336443;22;20029;-79
2023/04/04 10:44:19;;;;;;;6.50;2.22;;;7.00;99.90;;;;;;6364092;22;20021;-79
2023/04/04 10:46:47;;;;;;;6.35;2.50;;;7.10;99.90;;;;;;6364407;22;20018;-81
2023/04/04 10:49:14;;;;;;;4.65;2.50;;;7.20;99.90;;;;;;6363683;22;20159;-80
2023/04/04 10:51:41;;;;;;;5.95;2.58;;;7.20;99.90;;;;;;6336029;22;20089;-78
2023/04/04 10:54:07;;;;;;;4.45;2.92;;;7.50;99.90;;;;;;6331000;22;20098;-79
2023/04/04 10:56:34;;;;;;;3.40;2.22;;;7.50;99.90;;;;;;6363743;22;20055;-78
2023/04/04 10:59:14;;;;;;;4.97;2.60;;;7.50;99.90;;;;;;6310174;22;20585;-78
2023/04/04 11:02:01;;;;;;;7.30;2.40;;;7.60;99.90;;;;;;6310057;22;20046;-79
2023/04/04 11:04:37;;;;;;;4.93;2.70;;;7.50;99.90;;;;;;6364103;22;20299;-79
2023/04/04 11:07:08;;;;;;;7.60;2.50;;;7.40;99.90;;;;;;6309258;22;20361;-79
2023/04/04 11:09:54;;;;;;;4.30;2.35;;;7.70;99.90;;;;;;6336016;22;20022;-78
2023/04/04 11:12:29;;;;;;;7.20;2.28;;;7.60;99.90;;;;;;6307473;22;20022;-79
2023/04/04 11:15:01;;;;;;;5.55;2.50;;;7.60;99.90;;;;;;6335485;22;20022;-79
2023/04/04 11:17:53;;;;;;;2.47;2.22;;;7.70;99.90;;;;;;6335583;22;20090;-84
2023/04/04 11:20:27;;;;;;;5.18;2.80;;;7.70;99.90;;;;;;6336537;22;20396;-78
2023/04/04 11:23:37;;;;;;;8.00;2.25;;;7.70;99.90;;;;;;6335719;22;20401;-80
2023/04/04 11:26:07;;;;;;;6.28;2.65;;;7.80;99.90;;;;;;6241330;22;20031;-78
2023/04/04 11:28:32;;;;;;;3.38;1.98;;;7.80;99.90;;;;;;6325565;22;20018;-79
2023/04/04 11:31:19;;;;;;;3.83;2.40;;;7.90;99.90;;;;;;6336470;22;20046;-79
2023/04/04 11:34:05;;;;;;;2.40;2.15;;;7.80;99.90;;;;;;6335847;22;20394;-78
2023/04/04 11:36:34;;;;;;;4.85;2.60;;;7.80;99.70;;;;;;6336121;22;20089;-79
2023/04/04 11:39:28;;;;;;;4.53;2.55;;;7.90;99.90;;;;;;6302985;22;20648;-78
2023/04/04 11:42:02;;;;;;;6.85;2.72;;;8.00;99.90;;;;;;6353017;22;20083;-77
2023/04/04 11:44:29;;;;;;;2.83;2.10;;;8.00;99.90;;;;;;6335425;22;20091;-77
2023/04/04 11:47:02;;;;;;;4.68;2.47;;;8.00;99.40;;;;;;6364190;22;20095;-79
2023/04/04 11:49:30;;;;;;;3.17;1.85;;;8.00;99.90;;;;;;6309494;22;20069;-79
2023/04/04 11:51:56;;;;;;;4.00;2.08;;;8.00;98.00;;;;;;6335669;22;20113;-80
2023/04/04 11:54:23;;;;;;;5.88;2.15;;;8.00;99.00;;;;;;6336579;22;20074;-80
2023/04/04 11:56:49;;;;;;;3.10;2.13;;;7.90;99.60;;;;;;6336086;22;20090;-79
2023/04/04 11:59:19;;;;;;;2.58;2.00;;;7.90;97.90;;;;;;6363888;22;20021;-79
2023/04/04 12:01:46;;;;;;;4.15;2.20;;;8.20;99.90;;;;;;6335646;22;20093;-79
2023/04/04 12:04:18;;;;;;;3.00;2.10;;;8.10;99.10;;;;;;6335944;22;20029;-79
2023/04/04 12:06:50;;;;;;;2.15;2.00;;;8.10;98.30;;;;;;6335869;22;20352;-79
2023/04/04 12:09:17;;;;;;;4.00;2.72;;;8.10;97.10;;;;;;6364594;22;20443;-79
2023/04/04 12:11:46;;;;;;;3.40;2.25;;;8.20;99.90;;;;;;6363783;22;20018;-80
2023/04/04 12:14:19;;;;;;;4.82;2.90;;;8.20;98.50;;;;;;6364213;22;20293;-79
2023/04/04 12:16:51;;;;;;;5.22;2.58;;;8.30;95.80;;;;;;6335485;22;20713;-79
2023/04/04 12:19:17;;;;;;;4.88;2.25;;;8.30;94.60;;;;;;6363433;22;20022;-79
2023/04/04 12:21:45;;;;;;;3.97;2.00;;;8.20;96.30;;;;;;6309717;22;20091;-79
2023/04/04 12:24:11;;;;;;;7.63;2.42;;;8.40;96.70;;;;;;6363983;22;20014;-80
2023/04/04 12:26:41;;;;;;;2.72;2.17;;;8.40;95.70;;;;;;6328407;22;20022;-79
2023/04/04 12:29:08;;;;;;;2.30;1.85;;;8.30;92.80;;;;;;6335230;22;20753;-79
2023/04/04 12:31:36;;;;;;;3.72;2.42;;;8.40;96.20;;;;;;6335304;22;20022;-80
2023/04/04 12:34:02;;;;;;;5.72;2.53;;;8.50;96.10;;;;;;6362930;22;20097;-79
2023/04/04 12:36:32;;;;;;;8.70;2.83;;;8.50;95.40;;;;;;6363490;22;20091;-78
2023/04/04 12:39:00;;;;;;;6.13;2.63;;;8.60;95.00;;;;;;6335343;22;20095;-79
2023/04/04 12:41:26;;;;;;;4.40;2.35;;;8.50;92.70;;;;;;6335701;22;20050;-79
2023/04/04 12:44:01;;;;;;;5.97;2.22;;;8.50;95.60;;;;;;6336266;22;20018;-80
2023/04/04 12:46:27;;;;;;;3.58;2.05;;;8.60;94.70;;;;;;6336830;22;20026;-80
2023/04/04 12:48:53;;;;;;;2.53;1.77;;;8.50;94.60;;;;;;6335151;22;20033;-79
2023/04/04 12:51:19;;;;;;;3.03;1.85;;;8.50;94.80;;;;;;6335120;22;20021;-80
2023/04/04 12:53:52;;;;;;;3.83;2.58;;;8.60;95.30;;;;;;6364427;22;20014;-78
2023/04/04 12:56:18;;;;;;;4.90;2.95;;;8.60;92.50;;;;;;6364310;22;20017;-76
2023/04/04 12:58:47;;;;;;;5.25;2.08;;;8.70;95.20;;;;;;6336203;22;20010;-79
2023/04/04 13:01:15;;;;;;;7.07;2.42;;;8.70;90.80;;;;;;6310159;22;20355;-79
2023/04/04 13:03:42;;;;;;;4.82;3.00;;;8.80;92.10;;;;;;6335534;22;20041;-80
2023/04/04 13:06:16;;;;;;;7.75;2.45;;;8.70;94.10;;;;;;6335877;22;20018;-80
2023/04/04 13:08:49;;;;;;;6.43;2.15;;;8.60;90.00;;;;;;6335846;22;20071;-80
2023/04/04 13:11:15;;;;;;;7.03;2.10;;;8.60;91.30;;;;;;6357961;22;20018;-79
2023/04/04 13:13:42;;;;;;;3.90;2.70;;;8.70;87.80;;;;;;6336158;22;20317;-80
2023/04/04 13:16:10;;;;;;;4.70;2.45;;;8.90;87.70;;;;;;6311012;22;20083;-79
2023/04/04 13:18:42;;;;;;;2.97;2.00;;;8.90;83.70;;;;;;6365023;22;20018;-79
2023/04/04 13:21:11;;;;;;;4.17;2.37;;;8.80;89.80;;;;;;6366028;22;20022;-79
2023/04/04 13:23:39;;;;;;;4.57;2.38;;;8.80;90.40;;;;;;6311635;22;20030;-79
2023/04/04 13:26:06;;;;;;;6.93;3.08;;;8.80;90.00;;;;;;6337065;22;20010;-80
2023/04/04 13:28:32;;;;;;;6.70;2.00;;;8.70;90.50;;;;;;6366051;22;20049;-81
2023/04/04 13:31:06;;;;;;;6.45;2.42;;;8.70;92.30;;;;;;6338128;22;20438;-80
2023/04/04 13:33:32;;;;;;;3.45;2.58;;;8.70;92.50;;;;;;6365489;22;20018;-80
2023/04/04 13:35:58;;;;;;;3.42;1.98;;;8.80;93.60;;;;;;6366431;22;20364;-80
2023/04/04 13:38:26;;;;;;;3.65;2.25;;;8.80;91.70;;;;;;6337855;22;20030;-80
2023/04/04 13:40:52;;;;;;;3.95;2.40;;;9.00;90.60;;;;;;6340132;22;20018;-81
2023/04/04 13:43:17;;;;;;;4.35;2.40;;;9.10;91.10;;;;;;6368042;22;20325;-80
2023/04/04 13:45:43;;;;;;;4.00;2.50;;;9.00;91.20;;;;;;6339260;22;20053;-81
2023/04/04 13:48:10;;;;;;;2.10;1.90;;;9.00;91.30;;;;;;6337830;22;20056;-81
2023/04/04 13:50:38;;;;;;;3.30;2.30;;;9.00;90.70;;;;;;6311472;22;20443;-80
2023/04/04 13:53:03;;;;;;;3.55;2.50;;;9.20;91.40;;;;;;6336889;22;20014;-80
2023/04/04 13:55:30;;;;;;;3.08;2.28;;;9.20;92.20;;;;;;6336773;22;20037;-79
2023/04/04 13:57:56;;;;;;;5.13;2.70;;;9.10;86.30;;;;;;6328321;22;20338;-78
2023/04/04 14:00:24;;;;;;;4.93;2.45;;;9.00;90.30;;;;;;6364650;22;20014;-77
2023/04/04 14:02:50;;;;;;;4.60;2.42;;;9.00;90.60;;;;;;6335598;22;20025;-78
2023/04/04 14:05:19;;;;;;;5.55;2.38;;;9.10;88.40;;;;;;6364681;22;20287;-77
2023/04/04 14:07:45;;;;;;;2.50;2.10;;;9.20;90.50;;;;;;6335618;22;20042;-81